Time;durP1;ratioP1;P1;durP2;ratioP2;P2;SDS_P1;SDS_P2;PMS_P1;PMS_P2;Temp;Humidity;BMP_temperature;BMP_pressure;BME280_temperature;BME280_humidity;BME280_pressure;Samples;Min_cycle;Max_cycle;Signal;HPM_P1;HPM_P2
2022/09/21 00:01:30;;;;;;;;;;;13.60;99.90;;;;;;5071819;28;20086;-74
2022/09/21 00:03:57;;;;;;;;;;;13.60;99.90;;;;;;5072988;28;20381;-75
2022/09/21 00:06:24;;;;;;;;;;;13.60;99.90;;;;;;5071971;28;19908;-75
2022/09/21 00:08:49;;;;;;;;;;;13.70;99.90;;;;;;5072264;28;20372;-75
2022/09/21 00:11:17;;;;;;;;;;;13.60;99.90;;;;;;5070817;28;19912;-75
2022/09/21 00:13:44;;;;;;;;;;;13.70;99.90;;;;;;5072446;28;19908;-75
2022/09/21 00:16:10;;;;;;;;;;;13.70;99.90;;;;;;5071686;28;19970;-74
2022/09/21 00:18:35;;;;;;;;;;;13.70;99.90;;;;;;5071656;28;19908;-74
2022/09/21 00:21:05;;;;;;;;;;;13.70;99.90;;;;;;5072513;28;20354;-73
2022/09/21 00:23:30;;;;;;;;;;;13.70;99.90;;;;;;5071777;28;19951;-74
2022/09/21 00:26:05;;;;;;;;;;;13.80;99.90;;;;;;5072408;28;20269;-74
2022/09/21 00:28:31;;;;;;;;;;;13.80;99.90;;;;;;5072126;28;19934;-74
2022/09/21 00:31:00;;;;;;;;;;;13.80;99.90;;;;;;5072093;28;19908;-74
2022/09/21 00:33:25;;;;;;;;;;;13.90;99.90;;;;;;5071781;28;20371;-74
2022/09/21 00:35:51;;;;;;;;;;;13.90;99.90;;;;;;5072320;28;19909;-74
2022/09/21 00:38:17;;;;;;;;;;;14.00;99.90;;;;;;5073247;28;20306;-74
2022/09/21 00:40:42;;;;;;;;;;;13.90;99.90;;;;;;5074740;28;19913;-74
2022/09/21 00:43:10;;;;;;;;;;;13.90;99.90;;;;;;5075773;28;20005;-74
2022/09/21 00:45:36;;;;;;;;;;;14.00;99.90;;;;;;5073685;28;19925;-74
2022/09/21 00:48:01;;;;;;;;;;;13.90;99.90;;;;;;5075596;28;19954;-74
2022/09/21 00:50:27;;;;;;;;;;;14.00;99.90;;;;;;5074060;28;20357;-73
2022/09/21 00:52:54;;;;;;;;;;;14.00;99.90;;;;;;5075791;28;19962;-73
2022/09/21 00:55:23;;;;;;;;;;;14.00;99.90;;;;;;5074998;28;19915;-73
2022/09/21 00:57:52;;;;;;;;;;;14.00;99.90;;;;;;5075386;28;19980;-73
2022/09/21 01:00:18;;;;;;;;;;;14.00;99.90;;;;;;5075324;28;19909;-73
2022/09/21 01:02:44;;;;;;;;;;;14.00;99.90;;;;;;5075891;28;19931;-74
2022/09/21 01:05:10;;;;;;;;;;;14.00;99.90;;;;;;5075528;28;19916;-73
2022/09/21 01:07:38;;;;;;;;;;;14.00;99.90;;;;;;5074857;28;19958;-74
2022/09/21 01:10:06;;;;;;;;;;;14.00;99.90;;;;;;5075530;28;19997;-73
2022/09/21 01:12:38;;;;;;;;;;;14.00;99.90;;;;;;5074851;28;19908;-73
2022/09/21 01:15:03;;;;;;;;;;;14.00;99.90;;;;;;5075710;28;19913;-74
2022/09/21 01:17:30;;;;;;;;;;;14.00;99.90;;;;;;5074550;28;19958;-74
2022/09/21 01:20:14;;;;;;;;;;;14.00;99.90;;;;;;5075442;28;19908;-74
2022/09/21 01:22:48;;;;;;;;;;;14.10;99.90;;;;;;5074806;28;19932;-74
2022/09/21 01:25:43;;;;;;;;;;;14.10;99.90;;;;;;5073979;28;20342;-73
2022/09/21 01:28:09;;;;;;;;;;;14.20;99.90;;;;;;5065645;28;19908;-73
2022/09/21 01:30:37;;;;;;;;;;;14.10;99.90;;;;;;5074735;28;19958;-73
2022/09/21 01:33:24;;;;;;;;;;;14.10;99.90;;;;;;5073928;28;19909;-74
2022/09/21 01:35:54;;;;;;;;;;;14.10;99.90;;;;;;5074981;28;20070;-74
2022/09/21 01:38:27;;;;;;;;;;;14.20;99.90;;;;;;5074383;28;19915;-72
2022/09/21 01:40:57;;;;;;;;;;;14.20;99.90;;;;;;5075215;28;19909;-74
2022/09/21 01:43:25;;;;;;;;;;;14.20;99.90;;;;;;5074265;28;19942;-74
2022/09/21 01:45:52;;;;;;;;;;;14.10;99.90;;;;;;5074995;28;20380;-73
2022/09/21 01:48:19;;;;;;;;;;;14.20;99.90;;;;;;5074110;28;19912;-74
2022/09/21 01:50:48;;;;;;;;;;;14.20;99.90;;;;;;5074552;28;20034;-74
2022/09/21 01:53:20;;;;;;;;;;;14.20;99.90;;;;;;5074440;28;19909;-74
2022/09/21 01:55:51;;;;;;;;;;;14.20;99.90;;;;;;5074653;28;19909;-74
2022/09/21 01:58:23;;;;;;;;;;;14.10;99.90;;;;;;5074325;28;20366;-74
2022/09/21 02:00:49;;;;;;;;;;;14.20;99.90;;;;;;5074815;28;19919;-74
2022/09/21 02:03:19;;;;;;;;;;;14.20;99.90;;;;;;5074602;28;20353;-74
2022/09/21 02:05:44;;;;;;;;;;;14.20;99.90;;;;;;5073783;28;19947;-73
2022/09/21 02:08:10;;;;;;;;;;;14.20;99.90;;;;;;5074126;28;19947;-73
2022/09/21 02:10:38;;;;;;;;;;;14.20;99.90;;;;;;5073670;28;20361;-74
2022/09/21 02:13:05;;;;;;;;;;;14.20;99.90;;;;;;5074313;28;19909;-74
2022/09/21 02:15:51;;;;;;;;;;;14.20;99.90;;;;;;5073490;28;19908;-74
2022/09/21 02:18:40;;;;;;;;;;;14.20;99.90;;;;;;5052334;28;19916;-74
2022/09/21 02:21:10;;;;;;;;;;;14.20;99.90;;;;;;5068329;28;19908;-74
2022/09/21 02:23:38;;;;;;;;;;;14.10;99.90;;;;;;5073567;28;19912;-75
2022/09/21 02:26:11;;;;;;;;;;;14.10;99.90;;;;;;5074116;28;19999;-74
2022/09/21 02:28:42;;;;;;;;;;;14.10;99.90;;;;;;5072167;28;19908;-73
2022/09/21 02:31:19;;;;;;;;;;;14.10;99.90;;;;;;5074044;28;19909;-74
2022/09/21 02:33:56;;;;;;;;;;;14.00;99.90;;;;;;5072186;28;19909;-74
2022/09/21 02:36:29;;;;;;;;;;;14.00;99.90;;;;;;5073539;28;19927;-74
2022/09/21 02:39:15;;;;;;;;;;;14.00;99.90;;;;;;5073741;28;19952;-75
2022/09/21 02:41:52;;;;;;;;;;;14.00;99.90;;;;;;5072502;28;19908;-74
2022/09/21 02:44:31;;;;;;;;;;;13.90;99.90;;;;;;5073496;28;19912;-74
2022/09/21 02:47:02;;;;;;;;;;;13.90;99.90;;;;;;5073665;28;20008;-75
2022/09/21 02:49:32;;;;;;;;;;;13.80;99.90;;;;;;5072509;28;19912;-74
2022/09/21 02:52:00;;;;;;;;;;;13.80;99.90;;;;;;5073607;28;20003;-75
2022/09/21 02:54:28;;;;;;;;;;;13.70;99.90;;;;;;5072922;28;19909;-75
2022/09/21 02:56:54;;;;;;;;;;;13.70;99.90;;;;;;5073213;28;19963;-75
2022/09/21 02:59:22;;;;;;;;;;;13.70;99.90;;;;;;5072627;28;19916;-73
2022/09/21 03:01:48;;;;;;;;;;;13.60;99.90;;;;;;5070981;28;19908;-74
2022/09/21 03:04:14;;;;;;;;;;;13.60;99.90;;;;;;5073103;28;19995;-74
2022/09/21 03:06:40;;;;;;;;;;;13.50;99.90;;;;;;5072465;28;19913;-73
2022/09/21 03:09:05;;;;;;;;;;;13.50;99.90;;;;;;5073214;28;20349;-74
2022/09/21 03:11:32;;;;;;;;;;;13.50;99.90;;;;;;5072693;28;19909;-74
2022/09/21 03:13:58;;;;;;;;;;;13.40;99.90;;;;;;5073140;28;19919;-74
2022/09/21 03:16:24;;;;;;;;;;;13.40;99.90;;;;;;5071673;28;19916;-74
2022/09/21 03:18:50;;;;;;;;;;;13.30;99.90;;;;;;5072443;28;19909;-74
2022/09/21 03:21:15;;;;;;;;;;;13.20;99.90;;;;;;5073102;28;20027;-74
2022/09/21 03:23:41;;;;;;;;;;;13.20;99.90;;;;;;5072475;28;19932;-74
2022/09/21 03:26:07;;;;;;;;;;;13.20;99.90;;;;;;5072808;28;20273;-74
2022/09/21 03:28:33;;;;;;;;;;;13.20;99.90;;;;;;5072445;28;20014;-74
2022/09/21 03:30:58;;;;;;;;;;;13.10;99.90;;;;;;5072715;28;20012;-74
2022/09/21 03:33:24;;;;;;;;;;;13.10;99.90;;;;;;5071528;28;20002;-74
2022/09/21 03:35:50;;;;;;;;;;;13.00;99.90;;;;;;5071006;28;19995;-74
2022/09/21 03:38:17;;;;;;;;;;;13.00;99.90;;;;;;5072397;28;19967;-74
2022/09/21 03:40:46;;;;;;;;;;;12.90;99.90;;;;;;5072031;28;20370;-73
2022/09/21 03:43:12;;;;;;;;;;;12.90;99.90;;;;;;5073118;28;19947;-74
2022/09/21 03:45:39;;;;;;;;;;;12.90;99.90;;;;;;5072257;28;19932;-74
2022/09/21 03:48:05;;;;;;;;;;;12.80;99.90;;;;;;5072466;28;19909;-74
2022/09/21 03:50:31;;;;;;;;;;;12.70;99.90;;;;;;5071902;28;19908;-73
2022/09/21 03:52:56;;;;;;;;;;;12.70;99.90;;;;;;5072758;28;20415;-74
2022/09/21 03:55:22;;;;;;;;;;;12.60;99.90;;;;;;5072756;28;19962;-74
2022/09/21 03:57:48;;;;;;;;;;;12.60;99.90;;;;;;5072126;28;20221;-74
2022/09/21 04:00:14;;;;;;;;;;;12.60;99.90;;;;;;5072531;28;19948;-74
2022/09/21 04:02:40;;;;;;;;;;;12.60;99.90;;;;;;5072150;28;20250;-74
2022/09/21 04:05:09;;;;;;;;;;;12.60;99.90;;;;;;5072642;28;19915;-74
2022/09/21 04:07:35;;;;;;;;;;;12.60;99.90;;;;;;5072042;28;19913;-74
2022/09/21 04:10:02;;;;;;;;;;;12.60;99.90;;;;;;5072423;28;19915;-74
2022/09/21 04:12:28;;;;;;;;;;;12.60;99.90;;;;;;5074349;28;19912;-74
2022/09/21 04:14:53;;;;;;;;;;;12.70;99.90;;;;;;5076336;28;19915;-75
2022/09/21 04:17:19;;;;;;;;;;;12.80;99.90;;;;;;5076173;28;20416;-74
2022/09/21 04:19:45;;;;;;;;;;;12.80;99.90;;;;;;5075637;28;19908;-74
2022/09/21 04:22:11;;;;;;;;;;;12.90;99.90;;;;;;5076211;28;19955;-74
2022/09/21 04:24:39;;;;;;;;;;;12.90;99.90;;;;;;5075891;28;20289;-75
2022/09/21 04:27:08;;;;;;;;;;;12.90;99.90;;;;;;5076187;28;20357;-75
2022/09/21 04:29:34;;;;;;;;;;;13.00;99.90;;;;;;5075688;28;19930;-75
2022/09/21 04:31:59;;;;;;;;;;;13.10;99.90;;;;;;5076018;28;20003;-74
2022/09/21 04:34:25;;;;;;;;;;;13.10;99.90;;;;;;5076246;28;19908;-74
2022/09/21 04:36:52;;;;;;;;;;;13.20;99.90;;;;;;5075322;28;20406;-74
2022/09/21 04:39:18;;;;;;;;;;;13.20;99.90;;;;;;5076076;28;19909;-74
2022/09/21 04:41:44;;;;;;;;;;;13.30;99.90;;;;;;5073935;28;20011;-74
2022/09/21 04:44:09;;;;;;;;;;;13.30;99.90;;;;;;5075663;28;20349;-73
2022/09/21 04:46:35;;;;;;;;;;;13.40;99.90;;;;;;5075484;28;19912;-74
2022/09/21 04:49:01;;;;;;;;;;;13.40;99.90;;;;;;5075911;28;19908;-74
2022/09/21 04:51:26;;;;;;;;;;;13.40;99.90;;;;;;5076104;28;20353;-74
2022/09/21 04:53:52;;;;;;;;;;;13.50;99.90;;;;;;5073841;28;19943;-74
2022/09/21 04:56:19;;;;;;;;;;;13.50;99.90;;;;;;5074819;28;20622;-74
2022/09/21 04:58:45;;;;;;;;;;;13.60;99.90;;;;;;5074981;28;19909;-74
2022/09/21 05:01:11;;;;;;;;;;;13.60;99.90;;;;;;5075794;28;19955;-74
2022/09/21 05:03:37;;;;;;;;;;;13.60;99.90;;;;;;5074962;28;19912;-74
2022/09/21 05:06:03;;;;;;;;;;;13.60;99.90;;;;;;5075615;28;20238;-74
2022/09/21 05:11:24;;;;;;;;;;;13.70;99.90;;;;;;5037935;28;19915;-74
2022/09/21 05:13:49;;;;;;;;;;;13.70;99.90;;;;;;5074709;28;19912;-74
2022/09/21 05:16:15;;;;;;;;;;;13.70;99.90;;;;;;5075485;28;19908;-74
2022/09/21 05:18:41;;;;;;;;;;;13.70;99.90;;;;;;5074886;28;19908;-74
2022/09/21 05:21:08;;;;;;;;;;;13.70;99.90;;;;;;5075541;28;19915;-74
2022/09/21 05:23:34;;;;;;;;;;;13.70;99.90;;;;;;5072732;28;20270;-74
2022/09/21 05:25:59;;;;;;;;;;;13.70;99.90;;;;;;5074939;28;19909;-74
2022/09/21 05:28:26;;;;;;;;;;;13.70;99.90;;;;;;5075020;28;20265;-74
2022/09/21 05:31:10;;;;;;;;;;;13.70;99.90;;;;;;5074358;28;19969;-73
2022/09/21 05:33:38;;;;;;;;;;;13.70;99.90;;;;;;5074213;28;20377;-73
2022/09/21 05:36:04;;;;;;;;;;;13.70;99.90;;;;;;5074698;28;19909;-74
2022/09/21 05:38:30;;;;;;;;;;;13.70;99.90;;;;;;5073566;28;19908;-74
2022/09/21 05:40:55;;;;;;;;;;;13.70;99.90;;;;;;5074446;28;19909;-74
2022/09/21 05:43:21;;;;;;;;;;;13.70;99.90;;;;;;5074740;28;19923;-74
2022/09/21 05:45:54;;;;;;;;;;;13.70;99.90;;;;;;5074488;28;20328;-74
2022/09/21 05:48:22;;;;;;;;;;;13.70;99.90;;;;;;5073700;28;19913;-74
2022/09/21 05:50:51;;;;;;;;;;;13.70;99.90;;;;;;5073869;28;20320;-74
2022/09/21 05:53:29;;;;;;;;;;;13.80;99.90;;;;;;5074172;28;19959;-74
2022/09/21 05:55:55;;;;;;;;;;;13.80;99.90;;;;;;5074037;28;19916;-74
2022/09/21 05:58:21;;;;;;;;;;;13.80;99.90;;;;;;5074290;28;19970;-74
2022/09/21 06:01:04;;;;;;;;;;;13.70;99.90;;;;;;5073815;28;19999;-74
2022/09/21 06:03:31;;;;;;;;;;;13.80;99.90;;;;;;5074331;28;20422;-74
2022/09/21 06:05:57;;;;;;;;;;;13.90;99.90;;;;;;5073746;28;20494;-74
2022/09/21 06:08:24;;;;;;;;;;;13.90;99.90;;;;;;5074823;28;19955;-73
2022/09/21 06:10:49;;;;;;;;;;;13.90;99.90;;;;;;5073843;28;19999;-74
2022/09/21 06:13:15;;;;;;;;;;;14.00;99.90;;;;;;5073948;28;19951;-73
2022/09/21 06:15:41;;;;;;;;;;;14.00;99.90;;;;;;5073773;28;19908;-75
2022/09/21 06:18:07;;;;;;;;;;;14.00;99.90;;;;;;5073898;28;20381;-75
2022/09/21 06:20:32;;;;;;;;;;;14.00;99.90;;;;;;5073741;28;20003;-75
2022/09/21 06:23:04;;;;;;;;;;;14.10;99.90;;;;;;5073270;28;19959;-75
2022/09/21 06:25:30;;;;;;;;;;;14.10;99.90;;;;;;5073803;28;19999;-75
2022/09/21 06:28:00;;;;;;;;;;;14.10;99.90;;;;;;5073085;28;19966;-75
2022/09/21 06:30:25;;;;;;;;;;;14.10;99.90;;;;;;5073524;28;20073;-75
2022/09/21 06:32:51;;;;;;;;;;;14.10;99.90;;;;;;5073240;28;20404;-74
2022/09/21 06:35:17;;;;;;;;;;;14.20;99.90;;;;;;5072760;28;19909;-74
2022/09/21 06:37:42;;;;;;;;;;;14.20;99.90;;;;;;5073239;28;20372;-75
2022/09/21 06:40:08;;;;;;;;;;;14.20;99.90;;;;;;5073648;28;19913;-75
2022/09/21 06:42:33;;;;;;;;;;;14.20;99.90;;;;;;5073985;28;19912;-75
2022/09/21 06:44:59;;;;;;;;;;;14.30;99.90;;;;;;5072930;28;20171;-75
2022/09/21 06:47:25;;;;;;;;;;;14.30;99.90;;;;;;5073536;28;19916;-74
2022/09/21 06:49:52;;;;;;;;;;;14.40;99.90;;;;;;5072917;28;19912;-74
2022/09/21 06:52:17;;;;;;;;;;;14.50;99.90;;;;;;5073136;28;19909;-74
2022/09/21 06:54:43;;;;;;;;;;;14.60;99.90;;;;;;5072621;28;20008;-75
2022/09/21 06:57:08;;;;;;;;;;;14.70;99.90;;;;;;5071710;28;19916;-74
2022/09/21 06:59:34;;;;;;;;;;;14.70;99.90;;;;;;5072964;28;19913;-74
2022/09/21 07:02:00;;;;;;;;;;;14.80;99.90;;;;;;5072637;28;20475;-73
2022/09/21 07:04:27;;;;;;;;;;;14.80;99.90;;;;;;5073175;28;19915;-75
2022/09/21 07:06:52;;;;;;;;;;;14.80;99.90;;;;;;5072417;28;20015;-74
2022/09/21 07:09:18;;;;;;;;;;;14.80;99.90;;;;;;5072775;28;20012;-74
2022/09/21 07:11:44;;;;;;;;;;;14.90;99.90;;;;;;5072652;28;19912;-74
2022/09/21 07:14:09;;;;;;;;;;;14.90;99.90;;;;;;5073125;28;19909;-75
2022/09/21 07:16:35;;;;;;;;;;;15.00;99.90;;;;;;5073066;28;19925;-74
2022/09/21 07:19:03;;;;;;;;;;;15.00;99.90;;;;;;5072134;28;19915;-75
2022/09/21 07:21:28;;;;;;;;;;;15.00;99.90;;;;;;5073079;28;19912;-74
2022/09/21 07:23:54;;;;;;;;;;;15.00;99.90;;;;;;5071012;28;19963;-75
2022/09/21 07:26:21;;;;;;;;;;;15.10;99.90;;;;;;5072819;28;19909;-74
2022/09/21 07:28:47;;;;;;;;;;;15.10;99.90;;;;;;5072291;28;19909;-74
2022/09/21 07:31:13;;;;;;;;;;;15.20;99.90;;;;;;5073144;28;19910;-74
2022/09/21 07:33:40;;;;;;;;;;;15.20;99.90;;;;;;5072556;28;19908;-74
2022/09/21 07:36:09;;;;;;;;;;;15.30;99.90;;;;;;5072173;28;19922;-74
2022/09/21 07:38:35;;;;;;;;;;;15.30;99.90;;;;;;5071524;28;20424;-72
2022/09/21 07:41:02;;;;;;;;;;;15.30;99.90;;;;;;5072280;28;19961;-72
2022/09/21 07:43:28;;;;;;;;;;;15.40;99.90;;;;;;5072423;28;19915;-73
2022/09/21 07:45:56;;;;;;;;;;;15.40;99.90;;;;;;5071632;28;19921;-73
2022/09/21 07:48:22;;;;;;;;;;;15.50;99.90;;;;;;5072434;28;19908;-72
2022/09/21 07:50:48;;;;;;;;;;;15.50;99.90;;;;;;5071670;28;19969;-74
2022/09/21 07:53:15;;;;;;;;;;;15.50;99.90;;;;;;5072383;28;19916;-73
2022/09/21 07:55:40;;;;;;;;;;;15.50;99.90;;;;;;5072718;28;19915;-72
2022/09/21 08:00:50;;;;;;;;;;;15.50;99.90;;;;;;5070529;28;20046;-74
2022/09/21 08:03:15;;;;;;;;;;;15.60;99.90;;;;;;5071488;28;20007;-73
2022/09/21 08:05:41;;;;;;;;;;;15.70;99.90;;;;;;5072162;28;20368;-73
2022/09/21 08:08:07;;;;;;;;;;;15.70;99.90;;;;;;5071338;28;20015;-73
2022/09/21 08:10:34;;;;;;;;;;;15.60;99.90;;;;;;5072315;28;19950;-73
2022/09/21 08:13:00;;;;;;;;;;;15.70;99.90;;;;;;5071539;28;19958;-74
2022/09/21 08:15:26;;;;;;;;;;;15.60;99.90;;;;;;5072627;28;19947;-73
2022/09/21 08:17:52;;;;;;;;;;;15.70;99.90;;;;;;5071567;28;19916;-73
2022/09/21 08:20:18;;;;;;;;;;;15.70;99.90;;;;;;5072289;28;20000;-72
2022/09/21 08:22:43;;;;;;;;;;;15.70;99.90;;;;;;5071771;28;19944;-73
2022/09/21 08:25:12;;;;;;;;;;;15.70;99.90;;;;;;5071843;28;19919;-72
2022/09/21 08:27:39;;;;;;;;;;;15.80;99.90;;;;;;5072301;28;19909;-73
2022/09/21 08:30:06;;;;;;;;;;;15.80;99.90;;;;;;5069699;28;19904;-73
2022/09/21 08:32:32;;;;;;;;;;;15.90;99.90;;;;;;5071843;28;20354;-74
2022/09/21 08:34:57;;;;;;;;;;;16.20;99.90;;;;;;5069789;28;19915;-74
2022/09/21 08:37:23;;;;;;;;;;;16.40;99.90;;;;;;5071785;28;19916;-73
2022/09/21 08:39:49;;;;;;;;;;;16.50;99.90;;;;;;5071680;28;20388;-74
2022/09/21 08:42:33;;;;;;;;;;;16.70;99.90;;;;;;5071007;28;20258;-73
2022/09/21 08:45:03;;;;;;;;;;;16.80;99.90;;;;;;5069828;28;19970;-74
2022/09/21 08:47:42;;;;;;;;;;;16.90;99.90;;;;;;5071627;28;19962;-74
2022/09/21 08:50:23;;;;;;;;;;;16.90;99.90;;;;;;5069539;28;20746;-74
2022/09/21 08:52:51;;;;;;;;;;;17.20;99.90;;;;;;5068779;28;20258;-73
2022/09/21 08:55:18;;;;;;;;;;;17.10;99.90;;;;;;5070215;28;19912;-73
2022/09/21 08:57:43;;;;;;;;;;;17.20;99.90;;;;;;5070877;28;19916;-73
2022/09/21 09:00:16;;;;;;;;;;;17.20;99.90;;;;;;5074710;28;19916;-73
2022/09/21 09:02:42;;;;;;;;;;;17.20;99.90;;;;;;5074443;28;19908;-73
2022/09/21 09:05:19;;;;;;;;;;;17.20;99.90;;;;;;5074461;28;19915;-73
2022/09/21 09:07:45;;;;;;;;;;;17.20;99.90;;;;;;5075123;28;20015;-74
2022/09/21 09:10:10;;;;;;;;;;;17.10;99.90;;;;;;5074788;28;20003;-74
2022/09/21 09:12:47;;;;;;;;;;;17.20;99.90;;;;;;5075238;28;19998;-74
2022/09/21 09:15:37;;;;;;;;;;;17.30;99.90;;;;;;5075341;28;19909;-74
2022/09/21 09:18:08;;;;;;;;;;;17.30;99.90;;;;;;5074396;28;20274;-74
2022/09/21 09:20:40;;;;;;;;;;;17.30;99.90;;;;;;5074986;28;19909;-74
2022/09/21 09:23:11;;;;;;;;;;;17.30;99.90;;;;;;5073295;28;20675;-73
2022/09/21 09:25:38;;;;;;;;;;;17.40;99.90;;;;;;5074919;28;20339;-73
2022/09/21 09:28:16;;;;;;;;;;;17.50;99.90;;;;;;5074283;28;19943;-73
2022/09/21 09:30:42;;;;;;;;;;;17.60;99.90;;;;;;5074628;28;19913;-73
2022/09/21 09:33:15;;;;;;;;;;;17.70;99.90;;;;;;5074045;28;20003;-73
2022/09/21 09:35:46;;;;;;;;;;;17.60;99.90;;;;;;5074495;28;19912;-74
2022/09/21 09:38:20;;;;;;;;;;;17.50;99.90;;;;;;5074530;28;19916;-74
2022/09/21 09:41:02;;;;;;;;;;;17.60;99.90;;;;;;5074139;28;19908;-74
2022/09/21 09:43:34;;;;;;;;;;;17.70;99.90;;;;;;5073991;28;19916;-73
2022/09/21 09:46:07;;;;;;;;;;;17.80;99.90;;;;;;5074314;28;19950;-73
2022/09/21 09:49:03;;;;;;;;;;;17.80;99.90;;;;;;5073106;28;19931;-74
2022/09/21 09:51:29;;;;;;;;;;;17.90;99.90;;;;;;5074024;28;19912;-74
2022/09/21 09:53:58;;;;;;;;;;;17.80;99.90;;;;;;5073646;28;19915;-73
2022/09/21 09:56:23;;;;;;;;;;;17.80;99.90;;;;;;5073095;28;19908;-73
2022/09/21 09:58:52;;;;;;;;;;;17.90;99.90;;;;;;5073755;28;19916;-73
2022/09/21 10:01:37;;;;;;;;;;;17.80;99.90;;;;;;5074338;28;19920;-74
2022/09/21 10:04:04;;;;;;;;;;;17.90;99.90;;;;;;5073161;28;19977;-74
2022/09/21 10:06:30;;;;;;;;;;;17.90;99.90;;;;;;5072937;28;19913;-74
2022/09/21 10:08:56;;;;;;;;;;;18.00;99.90;;;;;;5073106;28;19909;-74
2022/09/21 10:11:33;;;;;;;;;;;18.10;99.90;;;;;;5073544;28;20274;-74
2022/09/21 10:14:06;;;;;;;;;;;18.10;99.90;;;;;;5073497;28;19912;-74
2022/09/21 10:16:31;;;;;;;;;;;18.10;99.90;;;;;;5073854;28;19916;-75
2022/09/21 10:19:00;;;;;;;;;;;18.10;99.90;;;;;;5073356;28;20246;-73
2022/09/21 10:21:31;;;;;;;;;;;18.10;99.90;;;;;;5073626;28;19916;-73
2022/09/21 10:23:58;;;;;;;;;;;18.30;99.90;;;;;;5073115;28;19931;-74
2022/09/21 10:26:29;;;;;;;;;;;18.30;99.90;;;;;;5073875;28;19999;-74
2022/09/21 10:28:59;;;;;;;;;;;18.40;99.90;;;;;;5072576;28;19931;-75
2022/09/21 10:31:26;;;;;;;;;;;18.50;99.90;;;;;;5073158;28;19908;-74
2022/09/21 10:34:24;;;;;;;;;;;18.50;99.90;;;;;;5073123;28;19909;-75
2022/09/21 10:36:51;;;;;;;;;;;18.50;99.90;;;;;;5049943;28;19917;-75
2022/09/21 10:39:27;;;;;;;;;;;18.50;99.90;;;;;;5073651;28;20362;-74
2022/09/21 10:42:03;;;;;;;;;;;18.60;99.90;;;;;;5071736;28;19971;-74
2022/09/21 10:44:34;;;;;;;;;;;18.60;99.90;;;;;;5072205;28;19920;-73
2022/09/21 10:47:03;;;;;;;;;;;18.70;99.90;;;;;;5072947;28;19912;-74
2022/09/21 10:49:29;;;;;;;;;;;18.70;99.90;;;;;;5073079;28;19916;-74
2022/09/21 10:51:56;;;;;;;;;;;18.70;99.90;;;;;;5072290;28;20362;-73
2022/09/21 10:54:26;;;;;;;;;;;18.80;99.90;;;;;;5073393;28;20003;-74
2022/09/21 10:56:53;;;;;;;;;;;18.70;99.90;;;;;;5072605;28;19970;-73
2022/09/21 10:59:22;;;;;;;;;;;18.80;99.90;;;;;;5072961;28;19912;-73
2022/09/21 11:01:51;;;;;;;;;;;18.70;99.90;;;;;;5072628;28;19995;-74
2022/09/21 11:04:37;;;;;;;;;;;18.70;99.90;;;;;;5072990;28;19912;-74
2022/09/21 11:07:09;;;;;;;;;;;18.60;99.90;;;;;;5064617;28;20361;-74
2022/09/21 11:09:53;;;;;;;;;;;18.50;99.90;;;;;;5072893;28;19959;-73
2022/09/21 11:12:37;;;;;;;;;;;18.50;99.90;;;;;;5072833;28;19919;-74
2022/09/21 11:15:02;;;;;;;;;;;18.50;99.90;;;;;;5072365;28;20285;-74
2022/09/21 11:17:47;;;;;;;;;;;18.60;99.90;;;;;;5072872;28;19920;-74
2022/09/21 11:20:21;;;;;;;;;;;18.70;99.90;;;;;;5072958;28;19915;-73
2022/09/21 11:22:54;;;;;;;;;;;18.70;99.90;;;;;;5071787;28;20266;-74
2022/09/21 11:25:45;;;;;;;;;;;18.80;99.90;;;;;;5072808;28;19912;-74
2022/09/21 11:28:14;;;;;;;;;;;18.80;99.90;;;;;;5056323;28;19908;-74
2022/09/21 11:30:56;;;;;;;;;;;18.90;99.90;;;;;;5072529;28;19916;-74
2022/09/21 11:33:40;;;;;;;;;;;18.80;99.90;;;;;;5072745;28;19918;-74
2022/09/21 11:36:17;;;;;;;;;;;18.80;99.90;;;;;;5070839;28;19904;-74
2022/09/21 11:38:43;;;;;;;;;;;18.80;99.90;;;;;;5072236;28;20365;-73
2022/09/21 11:41:34;;;;;;;;;;;18.90;99.90;;;;;;5072270;28;19919;-73
2022/09/21 11:44:00;;;;;;;;;;;19.00;99.90;;;;;;5072224;28;20237;-73
2022/09/21 11:46:35;;;;;;;;;;;19.00;99.90;;;;;;5072816;28;19926;-74
2022/09/21 11:49:00;;;;;;;;;;;19.10;99.90;;;;;;5072274;28;20012;-73
2022/09/21 11:51:36;;;;;;;;;;;19.20;99.90;;;;;;5072240;28;19999;-73
2022/09/21 11:54:05;;;;;;;;;;;19.30;99.90;;;;;;5072115;28;19915;-74
2022/09/21 11:56:35;;;;;;;;;;;19.40;99.90;;;;;;5071746;28;19991;-73
2022/09/21 11:59:05;;;;;;;;;;;19.40;99.90;;;;;;5070855;28;20250;-73
2022/09/21 12:01:31;;;;;;;;;;;19.40;99.90;;;;;;5071952;28;19908;-74
2022/09/21 12:04:02;;;;;;;;;;;19.30;99.90;;;;;;5071495;28;19931;-75
2022/09/21 12:06:34;;;;;;;;;;;19.30;99.90;;;;;;5071351;28;20019;-74
2022/09/21 12:09:29;;;;;;;;;;;19.40;99.90;;;;;;5071870;28;19908;-75
2022/09/21 12:11:55;;;;;;;;;;;19.30;99.90;;;;;;5061830;28;19927;-75
2022/09/21 12:14:32;;;;;;;;;;;19.20;99.90;;;;;;5072354;28;19962;-74
2022/09/21 12:16:57;;;;;;;;;;;19.20;99.90;;;;;;5071814;28;20019;-74
2022/09/21 12:19:47;;;;;;;;;;;19.20;99.90;;;;;;5072434;28;19936;-74
2022/09/21 12:22:16;;;;;;;;;;;19.10;99.90;;;;;;5072723;28;19916;-74
2022/09/21 12:24:45;;;;;;;;;;;19.00;99.90;;;;;;5071903;28;19909;-74
2022/09/21 12:27:31;;;;;;;;;;;18.90;99.90;;;;;;5071807;28;19915;-74
2022/09/21 12:30:16;;;;;;;;;;;18.80;99.90;;;;;;5070689;28;19909;-74
2022/09/21 12:32:48;;;;;;;;;;;18.70;99.90;;;;;;5072119;28;19912;-74
2022/09/21 12:35:19;;;;;;;;;;;18.70;99.90;;;;;;5075092;28;19954;-74
2022/09/21 12:37:58;;;;;;;;;;;18.70;99.90;;;;;;5075662;28;19936;-75
2022/09/21 12:40:32;;;;;;;;;;;18.70;99.90;;;;;;5075681;28;20316;-73
2022/09/21 12:43:20;;;;;;;;;;;18.70;99.90;;;;;;5075280;28;19912;-73
2022/09/21 12:45:52;;;;;;;;;;;18.80;99.90;;;;;;5067747;28;20300;-74
2022/09/21 12:48:24;;;;;;;;;;;18.90;99.90;;;;;;5075489;28;20323;-73
2022/09/21 12:51:01;;;;;;;;;;;19.00;99.90;;;;;;5073332;28;19912;-73
2022/09/21 12:53:28;;;;;;;;;;;19.00;99.90;;;;;;5075823;28;19913;-74
2022/09/21 12:55:54;;;;;;;;;;;19.10;99.90;;;;;;5075376;28;20339;-74
2022/09/21 12:58:44;;;;;;;;;;;19.00;99.90;;;;;;5075451;28;20015;-74
2022/09/21 13:01:28;;;;;;;;;;;19.00;99.90;;;;;;5068332;28;20316;-73
2022/09/21 13:03:54;;;;;;;;;;;19.00;99.90;;;;;;5074354;28;20338;-74
2022/09/21 13:06:26;;;;;;;;;;;19.00;99.90;;;;;;5075049;28;20275;-74
2022/09/21 13:08:52;;;;;;;;;;;19.00;99.90;;;;;;5074840;28;19909;-74
2022/09/21 13:11:20;;;;;;;;;;;19.10;99.90;;;;;;5073731;28;19912;-73
2022/09/21 13:13:50;;;;;;;;;;;19.10;99.90;;;;;;5074837;28;19959;-74
2022/09/21 13:16:37;;;;;;;;;;;19.10;99.90;;;;;;5075363;28;20021;-75
2022/09/21 13:19:04;;;;;;;;;;;19.10;99.90;;;;;;5074553;28;20022;-73
2022/09/21 13:21:31;;;;;;;;;;;19.20;99.90;;;;;;5074368;28;19909;-73
2022/09/21 13:23:59;;;;;;;;;;;19.20;99.90;;;;;;5074516;28;19915;-74
2022/09/21 13:26:36;;;;;;;;;;;19.10;99.90;;;;;;5074857;28;19909;-74
2022/09/21 13:29:23;;;;;;;;;;;19.00;99.90;;;;;;5074022;28;20296;-74
2022/09/21 13:32:08;;;;;;;;;;;18.90;99.90;;;;;;5073929;28;19916;-75
2022/09/21 13:34:37;;;;;;;;;;;18.80;99.90;;;;;;5074914;28;20003;-74
2022/09/21 13:37:22;;;;;;;;;;;18.80;99.90;;;;;;5074137;28;19917;-74
2022/09/21 13:39:56;;;;;;;;;;;18.80;99.90;;;;;;5074054;28;19909;-74
2022/09/21 13:42:31;;;;;;;;;;;18.80;99.90;;;;;;5074680;28;19931;-74
2022/09/21 13:44:57;;;;;;;;;;;18.90;99.90;;;;;;5073275;28;19927;-74
2022/09/21 13:47:31;;;;;;;;;;;18.90;99.90;;;;;;5074700;28;19909;-74
2022/09/21 13:49:57;;;;;;;;;;;19.00;99.90;;;;;;5073726;28;19908;-74
2022/09/21 13:52:43;;;;;;;;;;;19.00;99.90;;;;;;5074374;28;19955;-74
2022/09/21 13:55:26;;;;;;;;;;;18.90;99.90;;;;;;5071876;28;19981;-74
2022/09/21 13:57:54;;;;;;;;;;;18.90;99.90;;;;;;5073172;28;19931;-74
2022/09/21 14:00:29;;;;;;;;;;;18.90;99.90;;;;;;5073944;28;19915;-73
2022/09/21 14:02:57;;;;;;;;;;;18.90;99.90;;;;;;5073536;28;19908;-74
2022/09/21 14:05:25;;;;;;;;;;;18.90;99.90;;;;;;5073592;28;19915;-73
2022/09/21 14:08:14;;;;;;;;;;;18.90;99.90;;;;;;5072855;28;19981;-74
2022/09/21 14:10:40;;;;;;;;;;;18.90;99.90;;;;;;5067993;28;19916;-73
2022/09/21 14:13:21;;;;;;;;;;;18.80;99.90;;;;;;5073386;28;19947;-74
2022/09/21 14:15:47;;;;;;;;;;;18.80;99.90;;;;;;5073822;28;19931;-74
2022/09/21 14:18:15;;;;;;;;;;;18.80;99.90;;;;;;5073690;28;20361;-73
2022/09/21 14:20:59;;;;;;;;;;;18.80;99.90;;;;;;5074131;28;20283;-73
2022/09/21 14:23:27;;;;;;;;;;;18.80;99.90;;;;;;5074354;28;19931;-73
2022/09/21 14:25:55;;;;;;;;;;;18.90;99.90;;;;;;5072243;28;19960;-73
2022/09/21 14:28:27;;;;;;;;;;;19.00;99.90;;;;;;5073742;28;19915;-73
2022/09/21 14:30:59;;;;;;;;;;;18.90;99.90;;;;;;5072713;28;19920;-73
2022/09/21 14:33:47;;;;;;;;;;;19.00;99.90;;;;;;5073342;28;19908;-73
2022/09/21 14:36:16;;;;;;;;;;;19.00;99.90;;;;;;5066245;28;19908;-73
2022/09/21 14:38:48;;;;;;;;;;;19.10;99.90;;;;;;5073393;28;20366;-73